sensor_id;sensor_type;location;lat;lon;timestamp;temperature;humidity
56729;DHT22;42612;52.232;7.560;2023-12-29T00:01:59;13.60;59.30
56729;DHT22;42612;52.232;7.560;2023-12-29T00:04:25;13.60;58.70
56729;DHT22;42612;52.232;7.560;2023-12-29T00:06:51;13.60;58.80
56729;DHT22;42612;52.232;7.560;2023-12-29T00:09:17;13.60;58.90
56729;DHT22;42612;52.232;7.560;2023-12-29T00:11:47;13.60;59.00
56729;DHT22;42612;52.232;7.560;2023-12-29T00:14:13;13.60;59.10
56729;DHT22;42612;52.232;7.560;2023-12-29T00:16:39;13.60;59.20
56729;DHT22;42612;52.232;7.560;2023-12-29T00:19:05;13.60;59.20
56729;DHT22;42612;52.232;7.560;2023-12-29T00:21:31;13.60;59.40
56729;DHT22;42612;52.232;7.560;2023-12-29T00:23:56;13.60;59.70
56729;DHT22;42612;52.232;7.560;2023-12-29T00:26:22;13.50;59.80
56729;DHT22;42612;52.232;7.560;2023-12-29T00:28:48;13.60;59.80
56729;DHT22;42612;52.232;7.560;2023-12-29T00:31:14;13.50;59.90
56729;DHT22;42612;52.232;7.560;2023-12-29T00:33:44;13.50;59.90
56729;DHT22;42612;52.232;7.560;2023-12-29T00:36:16;13.50;60.60
56729;DHT22;42612;52.232;7.560;2023-12-29T00:38:42;13.40;60.00
56729;DHT22;42612;52.232;7.560;2023-12-29T00:41:08;13.50;59.90
56729;DHT22;42612;52.232;7.560;2023-12-29T00:43:34;13.50;60.00
56729;DHT22;42612;52.232;7.560;2023-12-29T00:46:04;13.50;60.00
56729;DHT22;42612;52.232;7.560;2023-12-29T00:48:31;13.50;59.90
56729;DHT22;42612;52.232;7.560;2023-12-29T00:50:57;13.50;59.90
56729;DHT22;42612;52.232;7.560;2023-12-29T00:53:23;13.50;59.90
56729;DHT22;42612;52.232;7.560;2023-12-29T00:55:49;13.50;59.90
56729;DHT22;42612;52.232;7.560;2023-12-29T00:58:14;13.50;59.90
56729;DHT22;42612;52.232;7.560;2023-12-29T01:00:40;13.50;60.00
56729;DHT22;42612;52.232;7.560;2023-12-29T01:03:06;13.50;59.90
56729;DHT22;42612;52.232;7.560;2023-12-29T01:05:32;13.50;59.80
56729;DHT22;42612;52.232;7.560;2023-12-29T01:07:57;13.50;59.90
56729;DHT22;42612;52.232;7.560;2023-12-29T01:10:23;13.50;59.90
56729;DHT22;42612;52.232;7.560;2023-12-29T01:12:49;13.60;59.90
56729;DHT22;42612;52.232;7.560;2023-12-29T01:15:15;13.60;59.80
56729;DHT22;42612;52.232;7.560;2023-12-29T01:17:40;13.60;59.90
56729;DHT22;42612;52.232;7.560;2023-12-29T01:20:06;13.70;60.00
56729;DHT22;42612;52.232;7.560;2023-12-29T01:22:33;13.60;59.90
56729;DHT22;42612;52.232;7.560;2023-12-29T01:24:59;13.70;59.90
56729;DHT22;42612;52.232;7.560;2023-12-29T01:27:25;13.60;59.80
56729;DHT22;42612;52.232;7.560;2023-12-29T01:29:51;13.70;59.90
56729;DHT22;42612;52.232;7.560;2023-12-29T01:32:18;13.60;59.70
56729;DHT22;42612;52.232;7.560;2023-12-29T01:34:44;13.60;59.80
56729;DHT22;42612;52.232;7.560;2023-12-29T01:37:10;13.70;59.80
56729;DHT22;42612;52.232;7.560;2023-12-29T01:39:36;13.60;59.80
56729;DHT22;42612;52.232;7.560;2023-12-29T01:42:02;13.70;60.00
56729;DHT22;42612;52.232;7.560;2023-12-29T01:44:28;13.60;60.70
56729;DHT22;42612;52.232;7.560;2023-12-29T01:46:57;13.70;60.20
56729;DHT22;42612;52.232;7.560;2023-12-29T01:49:25;13.60;60.60
56729;DHT22;42612;52.232;7.560;2023-12-29T01:51:53;13.60;60.40
56729;DHT22;42612;52.232;7.560;2023-12-29T01:54:21;13.60;60.60
56729;DHT22;42612;52.232;7.560;2023-12-29T01:56:54;13.60;60.60
56729;DHT22;42612;52.232;7.560;2023-12-29T01:59:25;13.50;60.80
56729;DHT22;42612;52.232;7.560;2023-12-29T02:01:51;13.50;60.80
56729;DHT22;42612;52.232;7.560;2023-12-29T02:04:17;13.60;60.90
56729;DHT22;42612;52.232;7.560;2023-12-29T02:06:43;13.50;60.80
56729;DHT22;42612;52.232;7.560;2023-12-29T02:09:09;13.50;60.70
56729;DHT22;42612;52.232;7.560;2023-12-29T02:11:35;13.50;60.80
56729;DHT22;42612;52.232;7.560;2023-12-29T02:14:01;13.50;60.80
56729;DHT22;42612;52.232;7.560;2023-12-29T02:16:38;13.50;60.70
56729;DHT22;42612;52.232;7.560;2023-12-29T02:21:51;13.50;60.70
56729;DHT22;42612;52.232;7.560;2023-12-29T02:24:16;13.50;60.50
56729;DHT22;42612;52.232;7.560;2023-12-29T02:26:46;13.60;60.70
56729;DHT22;42612;52.232;7.560;2023-12-29T02:29:18;13.60;60.70
56729;DHT22;42612;52.232;7.560;2023-12-29T02:31:50;13.60;60.70
56729;DHT22;42612;52.232;7.560;2023-12-29T02:34:19;13.60;60.70
56729;DHT22;42612;52.232;7.560;2023-12-29T02:36:46;13.60;60.70
56729;DHT22;42612;52.232;7.560;2023-12-29T02:39:13;13.60;60.90
56729;DHT22;42612;52.232;7.560;2023-12-29T02:41:38;13.50;61.00
56729;DHT22;42612;52.232;7.560;2023-12-29T02:44:04;13.50;61.30
56729;DHT22;42612;52.232;7.560;2023-12-29T02:46:30;13.50;61.70
56729;DHT22;42612;52.232;7.560;2023-12-29T02:48:56;13.40;62.00
56729;DHT22;42612;52.232;7.560;2023-12-29T02:51:22;13.40;61.90
56729;DHT22;42612;52.232;7.560;2023-12-29T02:53:47;13.30;61.90
56729;DHT22;42612;52.232;7.560;2023-12-29T02:56:14;13.30;62.20
56729;DHT22;42612;52.232;7.560;2023-12-29T02:58:40;13.20;63.50
56729;DHT22;42612;52.232;7.560;2023-12-29T03:01:06;13.20;63.50
56729;DHT22;42612;52.232;7.560;2023-12-29T03:03:31;13.10;63.50
56729;DHT22;42612;52.232;7.560;2023-12-29T03:05:57;13.10;63.40
56729;DHT22;42612;52.232;7.560;2023-12-29T03:08:23;13.00;63.90
56729;DHT22;42612;52.232;7.560;2023-12-29T03:10:49;13.00;63.40
56729;DHT22;42612;52.232;7.560;2023-12-29T03:13:14;13.00;63.40
56729;DHT22;42612;52.232;7.560;2023-12-29T03:15:40;13.00;63.40
56729;DHT22;42612;52.232;7.560;2023-12-29T03:18:06;13.00;63.60
56729;DHT22;42612;52.232;7.560;2023-12-29T03:20:32;12.90;63.80
56729;DHT22;42612;52.232;7.560;2023-12-29T03:22:57;12.90;63.90
56729;DHT22;42612;52.232;7.560;2023-12-29T03:25:23;13.00;63.60
56729;DHT22;42612;52.232;7.560;2023-12-29T03:27:49;12.90;63.90
56729;DHT22;42612;52.232;7.560;2023-12-29T03:30:14;12.90;63.70
56729;DHT22;42612;52.232;7.560;2023-12-29T03:32:40;12.90;63.90
56729;DHT22;42612;52.232;7.560;2023-12-29T03:35:06;12.90;63.80
56729;DHT22;42612;52.232;7.560;2023-12-29T03:37:32;12.90;63.90
56729;DHT22;42612;52.232;7.560;2023-12-29T03:39:57;12.80;63.80
56729;DHT22;42612;52.232;7.560;2023-12-29T03:42:23;12.80;63.90
56729;DHT22;42612;52.232;7.560;2023-12-29T03:44:49;12.80;63.90
56729;DHT22;42612;52.232;7.560;2023-12-29T03:47:14;12.80;64.00
56729;DHT22;42612;52.232;7.560;2023-12-29T03:49:40;12.80;64.80
56729;DHT22;42612;52.232;7.560;2023-12-29T03:52:06;12.80;64.10
56729;DHT22;42612;52.232;7.560;2023-12-29T03:54:31;12.80;64.10
56729;DHT22;42612;52.232;7.560;2023-12-29T03:56:57;12.90;64.10
56729;DHT22;42612;52.232;7.560;2023-12-29T03:59:23;12.80;64.30
56729;DHT22;42612;52.232;7.560;2023-12-29T04:01:48;12.80;64.30
56729;DHT22;42612;52.232;7.560;2023-12-29T04:04:14;12.90;64.40
56729;DHT22;42612;52.232;7.560;2023-12-29T04:06:40;12.80;64.40
56729;DHT22;42612;52.232;7.560;2023-12-29T04:09:06;12.80;64.40
56729;DHT22;42612;52.232;7.560;2023-12-29T04:11:32;12.80;64.40
56729;DHT22;42612;52.232;7.560;2023-12-29T04:13:58;12.80;64.40
56729;DHT22;42612;52.232;7.560;2023-12-29T04:16:24;12.80;64.40
56729;DHT22;42612;52.232;7.560;2023-12-29T04:18:49;12.80;64.50
56729;DHT22;42612;52.232;7.560;2023-12-29T04:21:15;12.80;64.50
56729;DHT22;42612;52.232;7.560;2023-12-29T04:23:41;12.90;64.50
56729;DHT22;42612;52.232;7.560;2023-12-29T04:26:07;12.80;64.40
56729;DHT22;42612;52.232;7.560;2023-12-29T04:28:33;12.90;65.20
56729;DHT22;42612;52.232;7.560;2023-12-29T04:30:59;12.90;65.10
56729;DHT22;42612;52.232;7.560;2023-12-29T04:33:25;12.90;64.50
56729;DHT22;42612;52.232;7.560;2023-12-29T04:35:51;12.90;65.10
56729;DHT22;42612;52.232;7.560;2023-12-29T04:38:17;12.90;64.40
56729;DHT22;42612;52.232;7.560;2023-12-29T04:40:46;12.90;64.30
56729;DHT22;42612;52.232;7.560;2023-12-29T04:43:12;12.90;64.20
56729;DHT22;42612;52.232;7.560;2023-12-29T04:45:38;12.90;64.20
56729;DHT22;42612;52.232;7.560;2023-12-29T04:48:04;12.90;64.10
56729;DHT22;42612;52.232;7.560;2023-12-29T04:50:30;12.90;64.10
56729;DHT22;42612;52.232;7.560;2023-12-29T04:52:56;12.90;64.00
56729;DHT22;42612;52.232;7.560;2023-12-29T04:55:21;13.00;64.00
56729;DHT22;42612;52.232;7.560;2023-12-29T04:57:47;13.00;64.10
56729;DHT22;42612;52.232;7.560;2023-12-29T05:00:13;13.00;64.30
56729;DHT22;42612;52.232;7.560;2023-12-29T05:02:39;13.00;64.40
56729;DHT22;42612;52.232;7.560;2023-12-29T05:05:05;13.00;64.40
56729;DHT22;42612;52.232;7.560;2023-12-29T05:07:31;13.00;64.60
56729;DHT22;42612;52.232;7.560;2023-12-29T05:09:57;12.90;64.50
56729;DHT22;42612;52.232;7.560;2023-12-29T05:12:22;12.90;64.50
56729;DHT22;42612;52.232;7.560;2023-12-29T05:14:48;12.90;64.50
56729;DHT22;42612;52.232;7.560;2023-12-29T05:17:14;12.90;65.30
56729;DHT22;42612;52.232;7.560;2023-12-29T05:19:40;12.90;64.70
56729;DHT22;42612;52.232;7.560;2023-12-29T05:22:05;12.90;64.80
56729;DHT22;42612;52.232;7.560;2023-12-29T05:24:31;12.90;64.90
56729;DHT22;42612;52.232;7.560;2023-12-29T05:26:57;12.90;64.90
56729;DHT22;42612;52.232;7.560;2023-12-29T05:29:23;12.80;65.00
56729;DHT22;42612;52.232;7.560;2023-12-29T05:31:49;12.80;65.00
56729;DHT22;42612;52.232;7.560;2023-12-29T05:34:14;12.80;65.10
56729;DHT22;42612;52.232;7.560;2023-12-29T05:36:40;12.80;65.20
56729;DHT22;42612;52.232;7.560;2023-12-29T05:39:07;12.80;65.30
56729;DHT22;42612;52.232;7.560;2023-12-29T05:41:33;12.80;65.30
56729;DHT22;42612;52.232;7.560;2023-12-29T05:43:58;12.80;64.90
56729;DHT22;42612;52.232;7.560;2023-12-29T05:46:26;12.80;64.80
56729;DHT22;42612;52.232;7.560;2023-12-29T05:48:52;12.80;64.80
56729;DHT22;42612;52.232;7.560;2023-12-29T05:51:18;12.80;64.50
56729;DHT22;42612;52.232;7.560;2023-12-29T05:53:44;12.80;64.40
56729;DHT22;42612;52.232;7.560;2023-12-29T05:56:12;12.80;64.30
56729;DHT22;42612;52.232;7.560;2023-12-29T05:58:41;12.90;64.30
56729;DHT22;42612;52.232;7.560;2023-12-29T06:01:08;12.90;64.20
56729;DHT22;42612;52.232;7.560;2023-12-29T06:03:34;12.90;64.10
56729;DHT22;42612;52.232;7.560;2023-12-29T06:06:00;12.90;64.10
56729;DHT22;42612;52.232;7.560;2023-12-29T06:08:26;12.90;63.90
56729;DHT22;42612;52.232;7.560;2023-12-29T06:10:51;12.90;63.90
56729;DHT22;42612;52.232;7.560;2023-12-29T06:13:17;12.90;63.80
56729;DHT22;42612;52.232;7.560;2023-12-29T06:15:43;12.90;63.70
56729;DHT22;42612;52.232;7.560;2023-12-29T06:18:09;12.90;63.80
56729;DHT22;42612;52.232;7.560;2023-12-29T06:20:35;13.00;63.80
56729;DHT22;42612;52.232;7.560;2023-12-29T06:23:00;13.00;63.70
56729;DHT22;42612;52.232;7.560;2023-12-29T06:25:26;13.00;63.70
56729;DHT22;42612;52.232;7.560;2023-12-29T06:27:53;13.00;63.60
56729;DHT22;42612;52.232;7.560;2023-12-29T06:30:19;13.00;63.40
56729;DHT22;42612;52.232;7.560;2023-12-29T06:32:45;13.00;63.30
56729;DHT22;42612;52.232;7.560;2023-12-29T06:35:11;13.00;63.20
56729;DHT22;42612;52.232;7.560;2023-12-29T06:37:38;13.00;63.20
56729;DHT22;42612;52.232;7.560;2023-12-29T06:40:07;13.00;63.20
56729;DHT22;42612;52.232;7.560;2023-12-29T06:42:33;13.00;63.10
56729;DHT22;42612;52.232;7.560;2023-12-29T06:44:59;13.00;63.00
56729;DHT22;42612;52.232;7.560;2023-12-29T06:47:25;13.10;63.00
56729;DHT22;42612;52.232;7.560;2023-12-29T06:49:50;13.10;62.90
56729;DHT22;42612;52.232;7.560;2023-12-29T06:52:16;13.10;62.80
56729;DHT22;42612;52.232;7.560;2023-12-29T06:54:42;13.10;62.80
56729;DHT22;42612;52.232;7.560;2023-12-29T06:57:08;13.10;62.70
56729;DHT22;42612;52.232;7.560;2023-12-29T06:59:34;13.10;62.70
56729;DHT22;42612;52.232;7.560;2023-12-29T07:02:00;13.10;62.70
56729;DHT22;42612;52.232;7.560;2023-12-29T07:04:26;13.10;62.70
56729;DHT22;42612;52.232;7.560;2023-12-29T07:06:53;13.10;62.60
56729;DHT22;42612;52.232;7.560;2023-12-29T07:09:18;13.10;62.50
56729;DHT22;42612;52.232;7.560;2023-12-29T07:11:48;13.10;63.20
56729;DHT22;42612;52.232;7.560;2023-12-29T07:14:15;13.10;62.50
56729;DHT22;42612;52.232;7.560;2023-12-29T07:16:41;13.10;62.40
56729;DHT22;42612;52.232;7.560;2023-12-29T07:19:06;13.10;62.40
56729;DHT22;42612;52.232;7.560;2023-12-29T07:21:32;13.10;62.70
56729;DHT22;42612;52.232;7.560;2023-12-29T07:23:58;13.10;62.30
56729;DHT22;42612;52.232;7.560;2023-12-29T07:26:24;13.10;62.30
56729;DHT22;42612;52.232;7.560;2023-12-29T07:28:49;13.10;62.20
56729;DHT22;42612;52.232;7.560;2023-12-29T07:31:22;13.10;62.20
56729;DHT22;42612;52.232;7.560;2023-12-29T07:33:49;13.20;62.20
56729;DHT22;42612;52.232;7.560;2023-12-29T07:36:15;13.10;62.10
56729;DHT22;42612;52.232;7.560;2023-12-29T07:38:41;13.20;62.10
56729;DHT22;42612;52.232;7.560;2023-12-29T07:41:08;13.10;62.10
56729;DHT22;42612;52.232;7.560;2023-12-29T07:43:35;13.10;62.00
56729;DHT22;42612;52.232;7.560;2023-12-29T07:46:01;13.10;62.10
56729;DHT22;42612;52.232;7.560;2023-12-29T07:48:27;13.10;62.00
56729;DHT22;42612;52.232;7.560;2023-12-29T07:50:53;13.10;62.00
56729;DHT22;42612;52.232;7.560;2023-12-29T07:53:29;13.10;62.00
56729;DHT22;42612;52.232;7.560;2023-12-29T07:55:55;13.10;62.00
56729;DHT22;42612;52.232;7.560;2023-12-29T07:58:21;13.20;61.90
56729;DHT22;42612;52.232;7.560;2023-12-29T08:00:46;13.10;61.80
56729;DHT22;42612;52.232;7.560;2023-12-29T08:03:12;13.20;61.90
56729;DHT22;42612;52.232;7.560;2023-12-29T08:05:38;13.20;61.90
56729;DHT22;42612;52.232;7.560;2023-12-29T08:08:04;13.20;61.90
56729;DHT22;42612;52.232;7.560;2023-12-29T08:10:30;13.20;61.80
56729;DHT22;42612;52.232;7.560;2023-12-29T08:12:57;13.20;61.90
56729;DHT22;42612;52.232;7.560;2023-12-29T08:15:23;13.20;61.90
56729;DHT22;42612;52.232;7.560;2023-12-29T08:17:49;13.20;62.00
56729;DHT22;42612;52.232;7.560;2023-12-29T08:20:14;13.20;62.10
56729;DHT22;42612;52.232;7.560;2023-12-29T08:22:41;13.20;62.20
56729;DHT22;42612;52.232;7.560;2023-12-29T08:25:07;13.20;62.20
56729;DHT22;42612;52.232;7.560;2023-12-29T08:27:33;13.20;62.30
56729;DHT22;42612;52.232;7.560;2023-12-29T08:29:58;13.10;62.50
56729;DHT22;42612;52.232;7.560;2023-12-29T08:32:24;13.10;62.40
56729;DHT22;42612;52.232;7.560;2023-12-29T08:34:50;13.10;62.50
56729;DHT22;42612;52.232;7.560;2023-12-29T08:37:16;13.10;62.50
56729;DHT22;42612;52.232;7.560;2023-12-29T08:39:48;13.10;62.60
56729;DHT22;42612;52.232;7.560;2023-12-29T08:42:14;13.00;62.70
56729;DHT22;42612;52.232;7.560;2023-12-29T08:44:41;12.90;63.00
56729;DHT22;42612;52.232;7.560;2023-12-29T08:47:07;12.90;63.00
56729;DHT22;42612;52.232;7.560;2023-12-29T08:49:37;12.80;63.20
56729;DHT22;42612;52.232;7.560;2023-12-29T08:52:04;12.80;63.70
56729;DHT22;42612;52.232;7.560;2023-12-29T08:54:30;12.70;63.70
56729;DHT22;42612;52.232;7.560;2023-12-29T08:56:55;12.70;63.80
56729;DHT22;42612;52.232;7.560;2023-12-29T08:59:21;12.70;64.30
56729;DHT22;42612;52.232;7.560;2023-12-29T09:01:47;12.60;64.50
56729;DHT22;42612;52.232;7.560;2023-12-29T09:04:13;12.60;64.80
56729;DHT22;42612;52.232;7.560;2023-12-29T09:06:39;12.60;64.60
56729;DHT22;42612;52.232;7.560;2023-12-29T09:09:05;12.60;64.80
56729;DHT22;42612;52.232;7.560;2023-12-29T09:11:30;12.60;65.00
56729;DHT22;42612;52.232;7.560;2023-12-29T09:13:56;12.60;65.30
56729;DHT22;42612;52.232;7.560;2023-12-29T09:16:22;12.60;65.10
56729;DHT22;42612;52.232;7.560;2023-12-29T09:18:47;12.60;65.50
56729;DHT22;42612;52.232;7.560;2023-12-29T09:21:13;12.60;66.20
56729;DHT22;42612;52.232;7.560;2023-12-29T09:23:39;12.60;65.40
56729;DHT22;42612;52.232;7.560;2023-12-29T09:26:05;12.60;65.40
56729;DHT22;42612;52.232;7.560;2023-12-29T09:28:33;12.60;65.60
56729;DHT22;42612;52.232;7.560;2023-12-29T09:30:59;12.70;66.10
56729;DHT22;42612;52.232;7.560;2023-12-29T09:33:26;12.60;66.30
56729;DHT22;42612;52.232;7.560;2023-12-29T09:35:51;12.60;66.20
56729;DHT22;42612;52.232;7.560;2023-12-29T09:38:18;12.60;66.20
56729;DHT22;42612;52.232;7.560;2023-12-29T09:40:45;12.60;66.10
56729;DHT22;42612;52.232;7.560;2023-12-29T09:43:12;12.60;66.40
56729;DHT22;42612;52.232;7.560;2023-12-29T09:45:38;12.70;66.10
56729;DHT22;42612;52.232;7.560;2023-12-29T09:48:07;12.70;66.10
56729;DHT22;42612;52.232;7.560;2023-12-29T09:50:34;12.70;66.80
56729;DHT22;42612;52.232;7.560;2023-12-29T09:53:02;12.70;66.40
56729;DHT22;42612;52.232;7.560;2023-12-29T09:55:28;12.70;66.30
56729;DHT22;42612;52.232;7.560;2023-12-29T09:57:54;12.70;66.10
56729;DHT22;42612;52.232;7.560;2023-12-29T10:00:20;12.80;66.70
56729;DHT22;42612;52.232;7.560;2023-12-29T10:02:51;12.70;66.00
56729;DHT22;42612;52.232;7.560;2023-12-29T10:05:18;12.80;66.20
56729;DHT22;42612;52.232;7.560;2023-12-29T10:07:45;12.80;66.30
56729;DHT22;42612;52.232;7.560;2023-12-29T10:10:15;12.80;66.40
56729;DHT22;42612;52.232;7.560;2023-12-29T10:12:43;12.80;67.10
56729;DHT22;42612;52.232;7.560;2023-12-29T10:15:15;12.80;67.10
56729;DHT22;42612;52.232;7.560;2023-12-29T10:18:07;12.90;66.20
56729;DHT22;42612;52.232;7.560;2023-12-29T10:23:43;12.90;66.10
56729;DHT22;42612;52.232;7.560;2023-12-29T10:26:15;12.90;66.00
56729;DHT22;42612;52.232;7.560;2023-12-29T10:28:40;13.00;66.00
56729;DHT22;42612;52.232;7.560;2023-12-29T10:31:07;13.00;65.90
56729;DHT22;42612;52.232;7.560;2023-12-29T10:33:35;13.00;65.90
56729;DHT22;42612;52.232;7.560;2023-12-29T10:36:02;13.00;66.40
56729;DHT22;42612;52.232;7.560;2023-12-29T10:38:29;13.00;65.80
56729;DHT22;42612;52.232;7.560;2023-12-29T10:41:14;13.10;65.80
56729;DHT22;42612;52.232;7.560;2023-12-29T10:43:43;13.10;66.00
56729;DHT22;42612;52.232;7.560;2023-12-29T10:46:11;13.10;65.70
56729;DHT22;42612;52.232;7.560;2023-12-29T10:48:37;13.10;65.60
56729;DHT22;42612;52.232;7.560;2023-12-29T10:51:04;13.10;65.60
56729;DHT22;42612;52.232;7.560;2023-12-29T10:53:31;13.10;65.50
56729;DHT22;42612;52.232;7.560;2023-12-29T10:55:58;13.10;65.40
56729;DHT22;42612;52.232;7.560;2023-12-29T10:58:25;13.10;65.40
56729;DHT22;42612;52.232;7.560;2023-12-29T11:00:58;13.10;65.40
56729;DHT22;42612;52.232;7.560;2023-12-29T11:03:27;13.20;65.50
56729;DHT22;42612;52.232;7.560;2023-12-29T11:06:02;13.20;65.40
56729;DHT22;42612;52.232;7.560;2023-12-29T11:08:28;13.20;65.20
56729;DHT22;42612;52.232;7.560;2023-12-29T11:10:54;13.20;65.40
56729;DHT22;42612;52.232;7.560;2023-12-29T11:13:21;13.20;65.40
56729;DHT22;42612;52.232;7.560;2023-12-29T11:15:47;13.30;65.30
56729;DHT22;42612;52.232;7.560;2023-12-29T11:18:17;13.30;65.20
56729;DHT22;42612;52.232;7.560;2023-12-29T11:20:45;13.30;65.00
56729;DHT22;42612;52.232;7.560;2023-12-29T11:23:12;13.40;65.00
56729;DHT22;42612;52.232;7.560;2023-12-29T11:25:44;13.40;65.00
56729;DHT22;42612;52.232;7.560;2023-12-29T11:28:14;13.40;64.80
56729;DHT22;42612;52.232;7.560;2023-12-29T11:30:40;13.40;64.70
56729;DHT22;42612;52.232;7.560;2023-12-29T11:33:14;13.40;64.70
56729;DHT22;42612;52.232;7.560;2023-12-29T11:35:51;13.40;64.60
56729;DHT22;42612;52.232;7.560;2023-12-29T11:38:29;13.40;65.30
56729;DHT22;42612;52.232;7.560;2023-12-29T11:41:17;13.40;64.50
56729;DHT22;42612;52.232;7.560;2023-12-29T11:43:58;13.50;64.50
56729;DHT22;42612;52.232;7.560;2023-12-29T11:46:42;13.50;64.40
56729;DHT22;42612;52.232;7.560;2023-12-29T11:49:10;13.50;64.40
56729;DHT22;42612;52.232;7.560;2023-12-29T11:51:40;13.50;64.30
56729;DHT22;42612;52.232;7.560;2023-12-29T11:54:07;13.50;64.10
56729;DHT22;42612;52.232;7.560;2023-12-29T11:56:34;13.50;64.20
56729;DHT22;42612;52.232;7.560;2023-12-29T11:59:14;13.50;64.30
56729;DHT22;42612;52.232;7.560;2023-12-29T12:01:42;13.50;64.10
56729;DHT22;42612;52.232;7.560;2023-12-29T12:04:39;13.50;64.80
56729;DHT22;42612;52.232;7.560;2023-12-29T12:12:55;13.60;64.20
56729;DHT22;42612;52.232;7.560;2023-12-29T12:17:54;13.60;63.90
56729;DHT22;42612;52.232;7.560;2023-12-29T12:20:20;13.60;63.90
56729;DHT22;42612;52.232;7.560;2023-12-29T12:22:49;13.60;63.90
56729;DHT22;42612;52.232;7.560;2023-12-29T12:25:30;13.60;63.70
56729;DHT22;42612;52.232;7.560;2023-12-29T12:28:01;13.60;63.70
56729;DHT22;42612;52.232;7.560;2023-12-29T12:30:30;13.60;63.80
56729;DHT22;42612;52.232;7.560;2023-12-29T12:33:01;13.60;63.70
56729;DHT22;42612;52.232;7.560;2023-12-29T12:35:28;13.60;63.70
56729;DHT22;42612;52.232;7.560;2023-12-29T12:38:27;13.60;63.50
56729;DHT22;42612;52.232;7.560;2023-12-29T12:40:56;13.60;63.50
56729;DHT22;42612;52.232;7.560;2023-12-29T12:43:23;13.60;63.40
56729;DHT22;42612;52.232;7.560;2023-12-29T12:45:58;13.60;63.40
56729;DHT22;42612;52.232;7.560;2023-12-29T12:48:36;13.60;63.20
56729;DHT22;42612;52.232;7.560;2023-12-29T12:51:06;13.60;63.20
56729;DHT22;42612;52.232;7.560;2023-12-29T12:53:32;13.70;63.20
56729;DHT22;42612;52.232;7.560;2023-12-29T12:55:58;13.70;63.10
56729;DHT22;42612;52.232;7.560;2023-12-29T12:58:24;13.70;63.00
56729;DHT22;42612;52.232;7.560;2023-12-29T13:00:57;13.70;62.90
56729;DHT22;42612;52.232;7.560;2023-12-29T13:03:24;13.70;62.80
56729;DHT22;42612;52.232;7.560;2023-12-29T13:05:50;13.70;62.90
56729;DHT22;42612;52.232;7.560;2023-12-29T13:08:17;13.70;62.70
56729;DHT22;42612;52.232;7.560;2023-12-29T13:10:43;13.70;62.60
56729;DHT22;42612;52.232;7.560;2023-12-29T13:13:10;13.70;62.50
56729;DHT22;42612;52.232;7.560;2023-12-29T13:15:46;13.70;62.60
56729;DHT22;42612;52.232;7.560;2023-12-29T13:18:28;13.70;62.50
56729;DHT22;42612;52.232;7.560;2023-12-29T13:20:55;13.70;62.40
56729;DHT22;42612;52.232;7.560;2023-12-29T13:23:25;13.70;62.50
56729;DHT22;42612;52.232;7.560;2023-12-29T13:25:55;13.70;62.50
56729;DHT22;42612;52.232;7.560;2023-12-29T13:28:23;13.70;62.50
56729;DHT22;42612;52.232;7.560;2023-12-29T13:30:49;13.70;63.00
56729;DHT22;42612;52.232;7.560;2023-12-29T13:36:20;13.70;62.10
56729;DHT22;42612;52.232;7.560;2023-12-29T13:38:53;13.70;62.00
56729;DHT22;42612;52.232;7.560;2023-12-29T13:41:24;13.70;62.10
56729;DHT22;42612;52.232;7.560;2023-12-29T13:43:52;13.70;62.10
56729;DHT22;42612;52.232;7.560;2023-12-29T13:46:19;13.70;62.10
56729;DHT22;42612;52.232;7.560;2023-12-29T13:48:46;13.70;62.10
56729;DHT22;42612;52.232;7.560;2023-12-29T13:51:14;13.70;62.10
56729;DHT22;42612;52.232;7.560;2023-12-29T13:53:40;13.70;62.10
56729;DHT22;42612;52.232;7.560;2023-12-29T13:56:07;13.70;62.10
56729;DHT22;42612;52.232;7.560;2023-12-29T13:58:33;13.70;62.00
56729;DHT22;42612;52.232;7.560;2023-12-29T14:01:00;13.70;62.00
56729;DHT22;42612;52.232;7.560;2023-12-29T14:03:42;13.70;61.90
56729;DHT22;42612;52.232;7.560;2023-12-29T14:06:12;13.70;61.90
56729;DHT22;42612;52.232;7.560;2023-12-29T14:08:46;13.70;61.90
56729;DHT22;42612;52.232;7.560;2023-12-29T14:11:12;13.70;61.80
56729;DHT22;42612;52.232;7.560;2023-12-29T14:13:41;13.70;61.90
56729;DHT22;42612;52.232;7.560;2023-12-29T14:16:07;13.70;61.70
56729;DHT22;42612;52.232;7.560;2023-12-29T14:21:32;13.70;61.80
56729;DHT22;42612;52.232;7.560;2023-12-29T14:26:37;13.70;61.60
56729;DHT22;42612;52.232;7.560;2023-12-29T14:29:06;13.70;61.70
56729;DHT22;42612;52.232;7.560;2023-12-29T14:31:43;13.70;61.50
56729;DHT22;42612;52.232;7.560;2023-12-29T14:34:10;13.70;61.20
56729;DHT22;42612;52.232;7.560;2023-12-29T14:36:38;13.70;61.40
56729;DHT22;42612;52.232;7.560;2023-12-29T14:39:08;13.70;61.30
56729;DHT22;42612;52.232;7.560;2023-12-29T14:41:35;13.70;61.20
56729;DHT22;42612;52.232;7.560;2023-12-29T14:44:02;13.70;61.00
56729;DHT22;42612;52.232;7.560;2023-12-29T14:46:28;13.60;60.90
56729;DHT22;42612;52.232;7.560;2023-12-29T14:48:55;13.70;61.00
56729;DHT22;42612;52.232;7.560;2023-12-29T14:51:23;13.60;61.60
56729;DHT22;42612;52.232;7.560;2023-12-29T14:53:49;13.60;60.90
56729;DHT22;42612;52.232;7.560;2023-12-29T14:56:16;13.60;61.50
56729;DHT22;42612;52.232;7.560;2023-12-29T14:58:42;13.60;61.00
56729;DHT22;42612;52.232;7.560;2023-12-29T15:01:09;13.60;61.80
56729;DHT22;42612;52.232;7.560;2023-12-29T15:03:35;13.60;61.20
56729;DHT22;42612;52.232;7.560;2023-12-29T15:06:02;13.60;61.20
56729;DHT22;42612;52.232;7.560;2023-12-29T15:08:28;13.60;61.30
56729;DHT22;42612;52.232;7.560;2023-12-29T15:11:00;13.60;61.20
56729;DHT22;42612;52.232;7.560;2023-12-29T15:13:27;13.60;61.30
56729;DHT22;42612;52.232;7.560;2023-12-29T15:15:53;13.60;61.40
56729;DHT22;42612;52.232;7.560;2023-12-29T15:18:19;13.60;61.30
56729;DHT22;42612;52.232;7.560;2023-12-29T15:20:45;13.60;61.30
56729;DHT22;42612;52.232;7.560;2023-12-29T15:23:10;13.60;61.50
56729;DHT22;42612;52.232;7.560;2023-12-29T15:25:36;13.60;61.60
56729;DHT22;42612;52.232;7.560;2023-12-29T15:28:03;13.60;61.70
56729;DHT22;42612;52.232;7.560;2023-12-29T15:30:29;13.50;61.70
56729;DHT22;42612;52.232;7.560;2023-12-29T15:32:54;13.60;61.90
56729;DHT22;42612;52.232;7.560;2023-12-29T15:35:20;13.60;62.00
56729;DHT22;42612;52.232;7.560;2023-12-29T15:37:46;13.60;62.00
56729;DHT22;42612;52.232;7.560;2023-12-29T15:40:12;13.60;62.10
56729;DHT22;42612;52.232;7.560;2023-12-29T15:42:38;13.60;62.20
56729;DHT22;42612;52.232;7.560;2023-12-29T15:45:03;13.60;62.30
56729;DHT22;42612;52.232;7.560;2023-12-29T15:47:29;13.60;62.40
56729;DHT22;42612;52.232;7.560;2023-12-29T15:49:55;13.60;62.50
56729;DHT22;42612;52.232;7.560;2023-12-29T15:52:21;13.50;62.70
56729;DHT22;42612;52.232;7.560;2023-12-29T15:54:46;13.60;62.90